sensor_id;sensor_type;location;lat;lon;timestamp;pressure;altitude;pressure_sealevel;temperature;humidity
84492;BME280;74718;40.778;21.400;2024-02-14T00:01:34;93670.59;;;7.59;53.76
84492;BME280;74718;40.778;21.400;2024-02-14T00:04:03;93669.11;;;7.57;53.58
84492;BME280;74718;40.778;21.400;2024-02-14T00:06:29;93667.03;;;7.54;53.68
84492;BME280;74718;40.778;21.400;2024-02-14T00:08:54;93672.89;;;7.52;53.91
84492;BME280;74718;40.778;21.400;2024-02-14T00:11:20;93680.98;;;7.52;54.07
84492;BME280;74718;40.778;21.400;2024-02-14T00:13:45;93677.20;;;7.50;53.95
84492;BME280;74718;40.778;21.400;2024-02-14T00:16:11;93679.80;;;7.47;54.19
84492;BME280;74718;40.778;21.400;2024-02-14T00:18:36;93683.28;;;7.49;54.13
84492;BME280;74718;40.778;21.400;2024-02-14T00:21:02;93684.64;;;7.50;54.22
84492;BME280;74718;40.778;21.400;2024-02-14T00:23:28;93682.75;;;7.49;54.11
84492;BME280;74718;40.778;21.400;2024-02-14T00:25:53;93685.79;;;7.49;54.03
84492;BME280;74718;40.778;21.400;2024-02-14T00:28:19;93686.67;;;7.48;53.87
84492;BME280;74718;40.778;21.400;2024-02-14T00:30:44;93687.01;;;7.50;53.91
84492;BME280;74718;40.778;21.400;2024-02-14T00:33:10;93686.12;;;7.53;53.89
84492;BME280;74718;40.778;21.400;2024-02-14T00:35:36;93683.19;;;7.52;53.83
84492;BME280;74718;40.778;21.400;2024-02-14T00:38:02;93689.80;;;7.53;54.03
84492;BME280;74718;40.778;21.400;2024-02-14T00:40:27;93685.81;;;7.55;53.91
84492;BME280;74718;40.778;21.400;2024-02-14T00:42:53;93687.97;;;7.54;53.78
84492;BME280;74718;40.778;21.400;2024-02-14T00:45:18;93687.48;;;7.54;53.37
84492;BME280;74718;40.778;21.400;2024-02-14T00:47:44;93683.45;;;7.56;53.44
84492;BME280;74718;40.778;21.400;2024-02-14T00:50:10;93692.11;;;7.55;53.47
84492;BME280;74718;40.778;21.400;2024-02-14T00:52:35;93691.94;;;7.57;53.17
84492;BME280;74718;40.778;21.400;2024-02-14T00:55:01;93692.83;;;7.59;52.85
84492;BME280;74718;40.778;21.400;2024-02-14T00:57:29;93692.99;;;7.60;52.95
84492;BME280;74718;40.778;21.400;2024-02-14T00:59:54;93687.96;;;7.61;52.80
84492;BME280;74718;40.778;21.400;2024-02-14T01:02:22;93689.33;;;7.62;52.70
84492;BME280;74718;40.778;21.400;2024-02-14T01:04:47;93688.44;;;7.62;52.61
84492;BME280;74718;40.778;21.400;2024-02-14T01:07:13;93689.60;;;7.63;52.61
84492;BME280;74718;40.778;21.400;2024-02-14T01:09:38;93693.10;;;7.63;52.49
84492;BME280;74718;40.778;21.400;2024-02-14T01:12:04;93692.15;;;7.60;52.41
84492;BME280;74718;40.778;21.400;2024-02-14T01:14:31;93691.89;;;7.58;52.21
84492;BME280;74718;40.778;21.400;2024-02-14T01:16:56;93695.93;;;7.60;52.31
84492;BME280;74718;40.778;21.400;2024-02-14T01:19:22;93699.81;;;7.60;52.38
84492;BME280;74718;40.778;21.400;2024-02-14T01:21:51;93700.80;;;7.59;51.92
84492;BME280;74718;40.778;21.400;2024-02-14T01:24:17;93696.92;;;7.59;52.05
84492;BME280;74718;40.778;21.400;2024-02-14T01:26:42;93701.80;;;7.60;52.04
84492;BME280;74718;40.778;21.400;2024-02-14T01:29:08;93704.54;;;7.60;52.15
84492;BME280;74718;40.778;21.400;2024-02-14T01:31:34;93709.27;;;7.62;52.10
84492;BME280;74718;40.778;21.400;2024-02-14T01:34:00;93705.59;;;7.61;51.99
84492;BME280;74718;40.778;21.400;2024-02-14T01:36:28;93705.99;;;7.59;52.02
84492;BME280;74718;40.778;21.400;2024-02-14T01:38:54;93710.98;;;7.55;52.25
84492;BME280;74718;40.778;21.400;2024-02-14T01:41:19;93708.95;;;7.53;52.41
84492;BME280;74718;40.778;21.400;2024-02-14T01:43:47;93710.77;;;7.52;52.34
84492;BME280;74718;40.778;21.400;2024-02-14T01:46:12;93710.04;;;7.51;52.33
84492;BME280;74718;40.778;21.400;2024-02-14T01:48:38;93711.52;;;7.51;52.29
84492;BME280;74718;40.778;21.400;2024-02-14T01:51:06;93711.86;;;7.49;52.55
84492;BME280;74718;40.778;21.400;2024-02-14T01:53:35;93712.80;;;7.48;52.44
84492;BME280;74718;40.778;21.400;2024-02-14T01:56:03;93717.94;;;7.46;52.53
84492;BME280;74718;40.778;21.400;2024-02-14T01:58:30;93720.23;;;7.45;52.57
84492;BME280;74718;40.778;21.400;2024-02-14T02:00:56;93722.33;;;7.43;52.49
84492;BME280;74718;40.778;21.400;2024-02-14T02:03:23;93720.13;;;7.43;52.80
84492;BME280;74718;40.778;21.400;2024-02-14T02:05:49;93715.19;;;7.42;52.84
84492;BME280;74718;40.778;21.400;2024-02-14T02:08:15;93719.97;;;7.41;52.80
84492;BME280;74718;40.778;21.400;2024-02-14T02:10:41;93719.70;;;7.41;52.74
84492;BME280;74718;40.778;21.400;2024-02-14T02:13:08;93722.60;;;7.38;52.89
84492;BME280;74718;40.778;21.400;2024-02-14T02:15:34;93724.27;;;7.37;53.00
84492;BME280;74718;40.778;21.400;2024-02-14T02:18:03;93726.69;;;7.38;53.09
84492;BME280;74718;40.778;21.400;2024-02-14T02:20:31;93725.00;;;7.38;53.11
84492;BME280;74718;40.778;21.400;2024-02-14T02:22:58;93729.00;;;7.38;53.01
84492;BME280;74718;40.778;21.400;2024-02-14T02:25:24;93728.69;;;7.38;52.87
84492;BME280;74718;40.778;21.400;2024-02-14T02:27:55;93726.93;;;7.35;53.05
84492;BME280;74718;40.778;21.400;2024-02-14T02:30:22;93724.82;;;7.32;53.30
84492;BME280;74718;40.778;21.400;2024-02-14T02:32:48;93728.06;;;7.30;53.26
84492;BME280;74718;40.778;21.400;2024-02-14T02:35:15;93725.33;;;7.26;53.29
84492;BME280;74718;40.778;21.400;2024-02-14T02:37:41;93724.17;;;7.28;53.30
84492;BME280;74718;40.778;21.400;2024-02-14T02:40:08;93723.13;;;7.29;53.26
84492;BME280;74718;40.778;21.400;2024-02-14T02:42:36;93725.05;;;7.26;53.31
84492;BME280;74718;40.778;21.400;2024-02-14T02:45:01;93727.89;;;7.23;53.19
84492;BME280;74718;40.778;21.400;2024-02-14T02:47:31;93724.85;;;7.22;53.20
84492;BME280;74718;40.778;21.400;2024-02-14T02:49:57;93728.36;;;7.22;53.34
84492;BME280;74718;40.778;21.400;2024-02-14T02:52:27;93729.73;;;7.22;53.41
84492;BME280;74718;40.778;21.400;2024-02-14T02:54:53;93731.67;;;7.23;53.40
84492;BME280;74718;40.778;21.400;2024-02-14T02:57:19;93734.77;;;7.23;53.26
84492;BME280;74718;40.778;21.400;2024-02-14T02:59:45;93739.80;;;7.22;53.25
84492;BME280;74718;40.778;21.400;2024-02-14T03:02:14;93736.44;;;7.23;53.19
84492;BME280;74718;40.778;21.400;2024-02-14T03:04:39;93742.93;;;7.21;53.11
84492;BME280;74718;40.778;21.400;2024-02-14T03:07:05;93746.91;;;7.21;53.08
84492;BME280;74718;40.778;21.400;2024-02-14T03:09:37;93746.66;;;7.22;53.30
84492;BME280;74718;40.778;21.400;2024-02-14T03:12:03;93749.08;;;7.22;53.07
84492;BME280;74718;40.778;21.400;2024-02-14T03:14:32;93753.48;;;7.22;52.97
84492;BME280;74718;40.778;21.400;2024-02-14T03:17:02;93756.21;;;7.23;52.85
84492;BME280;74718;40.778;21.400;2024-02-14T03:19:28;93756.00;;;7.24;52.77
84492;BME280;74718;40.778;21.400;2024-02-14T03:21:55;93760.91;;;7.24;52.74
84492;BME280;74718;40.778;21.400;2024-02-14T03:24:21;93759.97;;;7.26;52.65
84492;BME280;74718;40.778;21.400;2024-02-14T03:26:46;93760.80;;;7.26;52.66
84492;BME280;74718;40.778;21.400;2024-02-14T03:29:12;93761.71;;;7.27;52.72
84492;BME280;74718;40.778;21.400;2024-02-14T03:31:38;93765.95;;;7.27;52.82
84492;BME280;74718;40.778;21.400;2024-02-14T03:34:03;93769.58;;;7.28;52.77
84492;BME280;74718;40.778;21.400;2024-02-14T03:36:31;93774.66;;;7.27;52.76
84492;BME280;74718;40.778;21.400;2024-02-14T03:38:58;93777.34;;;7.27;52.64
84492;BME280;74718;40.778;21.400;2024-02-14T03:41:29;93784.36;;;7.25;52.91
84492;BME280;74718;40.778;21.400;2024-02-14T03:43:54;93779.27;;;7.24;52.72
84492;BME280;74718;40.778;21.400;2024-02-14T03:46:24;93783.57;;;7.22;52.89
84492;BME280;74718;40.778;21.400;2024-02-14T03:48:49;93783.10;;;7.21;52.97
84492;BME280;74718;40.778;21.400;2024-02-14T03:51:15;93784.61;;;7.20;52.98
84492;BME280;74718;40.778;21.400;2024-02-14T03:53:41;93789.23;;;7.19;53.09
84492;BME280;74718;40.778;21.400;2024-02-14T03:56:07;93787.13;;;7.20;53.01
84492;BME280;74718;40.778;21.400;2024-02-14T03:58:33;93788.13;;;7.21;53.10
84492;BME280;74718;40.778;21.400;2024-02-14T04:01:03;93794.40;;;7.18;53.18
84492;BME280;74718;40.778;21.400;2024-02-14T04:03:29;93796.58;;;7.15;53.20
84492;BME280;74718;40.778;21.400;2024-02-14T04:05:55;93796.15;;;7.14;53.35
84492;BME280;74718;40.778;21.400;2024-02-14T04:08:21;93795.26;;;7.12;53.26
84492;BME280;74718;40.778;21.400;2024-02-14T04:10:47;93798.70;;;7.07;53.63
84492;BME280;74718;40.778;21.400;2024-02-14T04:13:16;93801.31;;;7.07;53.73
84492;BME280;74718;40.778;21.400;2024-02-14T04:15:42;93797.02;;;7.08;53.56
84492;BME280;74718;40.778;21.400;2024-02-14T04:18:08;93805.73;;;7.11;53.71
84492;BME280;74718;40.778;21.400;2024-02-14T04:20:34;93807.46;;;7.12;53.70
84492;BME280;74718;40.778;21.400;2024-02-14T04:23:00;93808.45;;;7.10;53.61
84492;BME280;74718;40.778;21.400;2024-02-14T04:25:26;93808.98;;;7.10;53.92
84492;BME280;74718;40.778;21.400;2024-02-14T04:27:51;93810.30;;;7.13;53.83
84492;BME280;74718;40.778;21.400;2024-02-14T04:30:17;93810.14;;;7.11;53.81
84492;BME280;74718;40.778;21.400;2024-02-14T04:32:42;93806.41;;;7.10;53.91
84492;BME280;74718;40.778;21.400;2024-02-14T04:35:09;93803.05;;;7.06;53.91
84492;BME280;74718;40.778;21.400;2024-02-14T04:37:35;93803.34;;;7.02;53.98
84492;BME280;74718;40.778;21.400;2024-02-14T04:40:01;93803.05;;;6.99;54.01
84492;BME280;74718;40.778;21.400;2024-02-14T04:42:29;93803.20;;;6.99;54.25
84492;BME280;74718;40.778;21.400;2024-02-14T04:44:55;93805.52;;;6.99;54.23
84492;BME280;74718;40.778;21.400;2024-02-14T04:47:20;93807.34;;;6.97;54.22
84492;BME280;74718;40.778;21.400;2024-02-14T04:49:46;93810.63;;;6.96;54.33
84492;BME280;74718;40.778;21.400;2024-02-14T04:52:11;93815.73;;;6.97;54.46
84492;BME280;74718;40.778;21.400;2024-02-14T04:54:37;93815.03;;;6.96;54.29
84492;BME280;74718;40.778;21.400;2024-02-14T04:57:02;93814.18;;;6.92;54.40
84492;BME280;74718;40.778;21.400;2024-02-14T04:59:30;93823.56;;;6.90;54.57
84492;BME280;74718;40.778;21.400;2024-02-14T05:01:55;93828.67;;;6.88;54.87
84492;BME280;74718;40.778;21.400;2024-02-14T05:04:22;93833.12;;;6.87;55.14
84492;BME280;74718;40.778;21.400;2024-02-14T05:06:48;93829.02;;;6.86;55.03
84492;BME280;74718;40.778;21.400;2024-02-14T05:09:15;93834.23;;;6.83;55.06
84492;BME280;74718;40.778;21.400;2024-02-14T05:11:41;93843.70;;;6.82;55.11
84492;BME280;74718;40.778;21.400;2024-02-14T05:14:07;93847.92;;;6.79;55.28
84492;BME280;74718;40.778;21.400;2024-02-14T05:16:32;93850.58;;;6.81;55.11
84492;BME280;74718;40.778;21.400;2024-02-14T05:18:58;93850.84;;;6.83;55.08
84492;BME280;74718;40.778;21.400;2024-02-14T05:21:23;93853.63;;;6.84;55.05
84492;BME280;74718;40.778;21.400;2024-02-14T05:23:49;93862.02;;;6.85;54.93
84492;BME280;74718;40.778;21.400;2024-02-14T05:26:15;93864.43;;;6.84;54.86
84492;BME280;74718;40.778;21.400;2024-02-14T05:28:41;93865.84;;;6.84;54.97
84492;BME280;74718;40.778;21.400;2024-02-14T05:31:07;93863.23;;;6.85;54.77
84492;BME280;74718;40.778;21.400;2024-02-14T05:33:33;93866.23;;;6.86;54.88
84492;BME280;74718;40.778;21.400;2024-02-14T05:35:58;93867.92;;;6.87;54.69
84492;BME280;74718;40.778;21.400;2024-02-14T05:38:24;93874.58;;;6.87;54.77
84492;BME280;74718;40.778;21.400;2024-02-14T05:40:50;93874.36;;;6.87;54.69
84492;BME280;74718;40.778;21.400;2024-02-14T05:43:16;93881.14;;;6.89;54.82
84492;BME280;74718;40.778;21.400;2024-02-14T05:45:43;93879.73;;;6.84;54.67
84492;BME280;74718;40.778;21.400;2024-02-14T05:48:09;93886.31;;;6.83;54.91
84492;BME280;74718;40.778;21.400;2024-02-14T05:50:34;93883.52;;;6.80;55.04
84492;BME280;74718;40.778;21.400;2024-02-14T05:53:00;93893.92;;;6.75;55.41
84492;BME280;74718;40.778;21.400;2024-02-14T05:55:26;93895.45;;;6.76;55.46
84492;BME280;74718;40.778;21.400;2024-02-14T05:57:52;93894.92;;;6.78;55.61
84492;BME280;74718;40.778;21.400;2024-02-14T06:00:19;93899.17;;;6.79;55.72
84492;BME280;74718;40.778;21.400;2024-02-14T06:02:48;93900.69;;;6.78;55.60
84492;BME280;74718;40.778;21.400;2024-02-14T06:05:15;93903.05;;;6.80;55.43
84492;BME280;74718;40.778;21.400;2024-02-14T06:07:41;93903.20;;;6.77;55.46
84492;BME280;74718;40.778;21.400;2024-02-14T06:10:07;93908.82;;;6.77;55.64
84492;BME280;74718;40.778;21.400;2024-02-14T06:12:34;93913.27;;;6.75;55.67
84492;BME280;74718;40.778;21.400;2024-02-14T06:15:00;93914.98;;;6.75;55.40
84492;BME280;74718;40.778;21.400;2024-02-14T06:17:26;93912.91;;;6.72;55.58
84492;BME280;74718;40.778;21.400;2024-02-14T06:19:54;93916.77;;;6.69;55.89
84492;BME280;74718;40.778;21.400;2024-02-14T06:22:20;93914.41;;;6.70;55.97
84492;BME280;74718;40.778;21.400;2024-02-14T06:24:47;93917.22;;;6.73;55.91
84492;BME280;74718;40.778;21.400;2024-02-14T06:27:16;93923.77;;;6.74;55.85
84492;BME280;74718;40.778;21.400;2024-02-14T06:29:45;93928.30;;;6.76;56.04
84492;BME280;74718;40.778;21.400;2024-02-14T06:32:14;93928.92;;;6.78;55.84
84492;BME280;74718;40.778;21.400;2024-02-14T06:34:39;93932.13;;;6.78;55.74
84492;BME280;74718;40.778;21.400;2024-02-14T06:37:05;93931.27;;;6.74;56.00
84492;BME280;74718;40.778;21.400;2024-02-14T06:39:31;93936.29;;;6.73;56.19
84492;BME280;74718;40.778;21.400;2024-02-14T06:41:56;93937.71;;;6.74;56.16
84492;BME280;74718;40.778;21.400;2024-02-14T06:44:24;93937.79;;;6.77;56.36
84492;BME280;74718;40.778;21.400;2024-02-14T06:46:50;93941.02;;;6.81;56.21
84492;BME280;74718;40.778;21.400;2024-02-14T06:49:16;93935.20;;;6.82;56.01
84492;BME280;74718;40.778;21.400;2024-02-14T06:51:42;93937.25;;;6.82;56.15
84492;BME280;74718;40.778;21.400;2024-02-14T06:54:08;93937.45;;;6.81;56.16
84492;BME280;74718;40.778;21.400;2024-02-14T06:56:34;93942.19;;;6.79;56.42
84492;BME280;74718;40.778;21.400;2024-02-14T06:59:00;93943.81;;;6.76;56.57
84492;BME280;74718;40.778;21.400;2024-02-14T07:01:28;93947.48;;;6.77;56.73
84492;BME280;74718;40.778;21.400;2024-02-14T07:03:53;93951.41;;;6.77;56.87
84492;BME280;74718;40.778;21.400;2024-02-14T07:06:19;93955.65;;;6.78;57.14
84492;BME280;74718;40.778;21.400;2024-02-14T07:08:45;93948.39;;;6.80;57.66
84492;BME280;74718;40.778;21.400;2024-02-14T07:11:10;93949.17;;;6.81;58.16
84492;BME280;74718;40.778;21.400;2024-02-14T07:13:36;93954.91;;;6.82;58.07
84492;BME280;74718;40.778;21.400;2024-02-14T07:16:02;93953.73;;;6.85;58.20
84492;BME280;74718;40.778;21.400;2024-02-14T07:18:28;93955.16;;;6.91;58.43
84492;BME280;74718;40.778;21.400;2024-02-14T07:20:53;93959.45;;;6.92;58.09
84492;BME280;74718;40.778;21.400;2024-02-14T07:23:20;93962.27;;;6.97;57.90
84492;BME280;74718;40.778;21.400;2024-02-14T07:25:46;93964.02;;;7.03;57.59
84492;BME280;74718;40.778;21.400;2024-02-14T07:28:12;93966.83;;;7.02;57.41
84492;BME280;74718;40.778;21.400;2024-02-14T07:30:37;93973.52;;;7.00;57.40
84492;BME280;74718;40.778;21.400;2024-02-14T07:33:03;93973.38;;;6.97;57.03
84492;BME280;74718;40.778;21.400;2024-02-14T07:35:29;93976.28;;;6.93;57.13
84492;BME280;74718;40.778;21.400;2024-02-14T07:37:55;93983.92;;;6.93;57.24
84492;BME280;74718;40.778;21.400;2024-02-14T07:40:21;93984.75;;;6.97;57.19
84492;BME280;74718;40.778;21.400;2024-02-14T07:42:48;93974.35;;;7.00;56.98
84492;BME280;74718;40.778;21.400;2024-02-14T07:45:13;93972.41;;;7.05;57.13
84492;BME280;74718;40.778;21.400;2024-02-14T07:47:39;93975.96;;;7.12;56.98
84492;BME280;74718;40.778;21.400;2024-02-14T07:50:06;93986.30;;;7.13;56.81
84492;BME280;74718;40.778;21.400;2024-02-14T07:52:32;93983.44;;;7.09;57.06
84492;BME280;74718;40.778;21.400;2024-02-14T07:54:58;93973.80;;;7.11;57.10
84492;BME280;74718;40.778;21.400;2024-02-14T07:57:24;93975.47;;;7.16;56.97
84492;BME280;74718;40.778;21.400;2024-02-14T07:59:51;93977.11;;;7.17;56.95
84492;BME280;74718;40.778;21.400;2024-02-14T08:02:17;93975.03;;;7.19;56.93
84492;BME280;74718;40.778;21.400;2024-02-14T08:04:43;93965.17;;;7.19;56.78
84492;BME280;74718;40.778;21.400;2024-02-14T08:07:11;93972.18;;;7.18;56.96
84492;BME280;74718;40.778;21.400;2024-02-14T08:09:37;93979.21;;;7.18;56.66
84492;BME280;74718;40.778;21.400;2024-02-14T08:12:04;93981.33;;;7.19;56.70
84492;BME280;74718;40.778;21.400;2024-02-14T08:14:31;93976.19;;;7.19;56.67
84492;BME280;74718;40.778;21.400;2024-02-14T08:16:56;93978.27;;;7.22;56.59
84492;BME280;74718;40.778;21.400;2024-02-14T08:19:22;93976.21;;;7.25;56.93
84492;BME280;74718;40.778;21.400;2024-02-14T08:21:48;93982.00;;;7.28;56.60
84492;BME280;74718;40.778;21.400;2024-02-14T08:24:13;93980.59;;;7.28;56.48
84492;BME280;74718;40.778;21.400;2024-02-14T08:26:39;93985.23;;;7.30;56.65
84492;BME280;74718;40.778;21.400;2024-02-14T08:29:04;93985.85;;;7.35;56.45
84492;BME280;74718;40.778;21.400;2024-02-14T08:31:30;93983.91;;;7.35;56.05
84492;BME280;74718;40.778;21.400;2024-02-14T08:33:56;93985.16;;;7.34;55.44
84492;BME280;74718;40.778;21.400;2024-02-14T08:36:22;93993.54;;;7.32;54.95
84492;BME280;74718;40.778;21.400;2024-02-14T08:38:47;93988.99;;;7.29;54.57
84492;BME280;74718;40.778;21.400;2024-02-14T08:41:13;93995.77;;;7.22;54.32
84492;BME280;74718;40.778;21.400;2024-02-14T08:43:43;93996.02;;;7.19;54.64
84492;BME280;74718;40.778;21.400;2024-02-14T08:46:10;93999.18;;;7.24;54.91
84492;BME280;74718;40.778;21.400;2024-02-14T08:48:39;93997.55;;;7.35;54.75
84492;BME280;74718;40.778;21.400;2024-02-14T08:51:12;93991.89;;;7.45;54.81
84492;BME280;74718;40.778;21.400;2024-02-14T08:53:38;93989.54;;;7.52;54.60
84492;BME280;74718;40.778;21.400;2024-02-14T08:56:05;93989.61;;;7.56;54.58
84492;BME280;74718;40.778;21.400;2024-02-14T08:58:30;93993.38;;;7.53;54.35
84492;BME280;74718;40.778;21.400;2024-02-14T09:00:56;94003.23;;;7.47;54.39
84492;BME280;74718;40.778;21.400;2024-02-14T09:03:21;94003.98;;;7.43;54.56
84492;BME280;74718;40.778;21.400;2024-02-14T09:05:47;94010.80;;;7.43;54.60
84492;BME280;74718;40.778;21.400;2024-02-14T09:08:14;94018.38;;;7.36;54.51
84492;BME280;74718;40.778;21.400;2024-02-14T09:10:39;94019.20;;;7.30;54.63
84492;BME280;74718;40.778;21.400;2024-02-14T09:13:05;94025.73;;;7.26;54.54
84492;BME280;74718;40.778;21.400;2024-02-14T09:15:33;94026.15;;;7.26;54.59
84492;BME280;74718;40.778;21.400;2024-02-14T09:17:58;94026.11;;;7.27;54.34
84492;BME280;74718;40.778;21.400;2024-02-14T09:20:25;94021.78;;;7.30;54.19
84492;BME280;74718;40.778;21.400;2024-02-14T09:22:51;94019.83;;;7.34;54.10
84492;BME280;74718;40.778;21.400;2024-02-14T09:25:18;94008.67;;;7.36;54.22
84492;BME280;74718;40.778;21.400;2024-02-14T09:27:49;94011.36;;;7.37;54.04
84492;BME280;74718;40.778;21.400;2024-02-14T09:30:15;94016.41;;;7.39;54.19
84492;BME280;74718;40.778;21.400;2024-02-14T09:32:44;94017.95;;;7.43;54.31
84492;BME280;74718;40.778;21.400;2024-02-14T09:35:09;94026.07;;;7.48;54.19
84492;BME280;74718;40.778;21.400;2024-02-14T09:37:35;94025.59;;;7.55;53.86
84492;BME280;74718;40.778;21.400;2024-02-14T09:40:05;94023.44;;;7.61;54.04
84492;BME280;74718;40.778;21.400;2024-02-14T09:43:04;94018.37;;;7.74;53.83
84492;BME280;74718;40.778;21.400;2024-02-14T09:45:31;94005.89;;;8.03;53.23
84492;BME280;74718;40.778;21.400;2024-02-14T09:47:58;93999.48;;;8.46;52.21
84492;BME280;74718;40.778;21.400;2024-02-14T09:50:29;93995.84;;;8.81;51.04
84492;BME280;74718;40.778;21.400;2024-02-14T09:52:57;93990.34;;;8.86;49.56
84492;BME280;74718;40.778;21.400;2024-02-14T09:55:24;93995.09;;;9.12;49.22
84492;BME280;74718;40.778;21.400;2024-02-14T09:57:51;93994.30;;;9.12;49.13
84492;BME280;74718;40.778;21.400;2024-02-14T10:00:18;93996.08;;;8.96;48.82
84492;BME280;74718;40.778;21.400;2024-02-14T10:02:44;94003.66;;;8.77;48.78
84492;BME280;74718;40.778;21.400;2024-02-14T10:05:10;94001.99;;;8.60;48.47
84492;BME280;74718;40.778;21.400;2024-02-14T10:07:44;94001.60;;;8.49;48.82
84492;BME280;74718;40.778;21.400;2024-02-14T10:10:10;93994.96;;;8.45;49.10
84492;BME280;74718;40.778;21.400;2024-02-14T10:12:36;93997.92;;;8.39;48.90
84492;BME280;74718;40.778;21.400;2024-02-14T10:15:02;93994.25;;;8.39;49.20
84492;BME280;74718;40.778;21.400;2024-02-14T10:17:29;93995.29;;;8.45;49.30
84492;BME280;74718;40.778;21.400;2024-02-14T10:19:59;93993.73;;;8.41;49.17
84492;BME280;74718;40.778;21.400;2024-02-14T10:22:32;93998.56;;;8.39;49.01
84492;BME280;74718;40.778;21.400;2024-02-14T10:24:59;93998.70;;;8.43;48.83
84492;BME280;74718;40.778;21.400;2024-02-14T10:27:25;94004.91;;;8.38;48.68
84492;BME280;74718;40.778;21.400;2024-02-14T10:29:51;94006.85;;;8.35;48.57
84492;BME280;74718;40.778;21.400;2024-02-14T10:32:16;93998.98;;;8.29;48.44
84492;BME280;74718;40.778;21.400;2024-02-14T10:34:43;93992.55;;;8.33;48.54
84492;BME280;74718;40.778;21.400;2024-02-14T10:37:13;93987.42;;;8.39;48.32
84492;BME280;74718;40.778;21.400;2024-02-14T10:39:41;93984.05;;;8.48;48.40
84492;BME280;74718;40.778;21.400;2024-02-14T10:42:07;93976.32;;;8.50;47.37
84492;BME280;74718;40.778;21.400;2024-02-14T10:44:34;93971.54;;;8.50;47.53
84492;BME280;74718;40.778;21.400;2024-02-14T10:47:02;93960.78;;;8.50;47.34
84492;BME280;74718;40.778;21.400;2024-02-14T10:49:30;93963.70;;;8.52;47.14
84492;BME280;74718;40.778;21.400;2024-02-14T10:51:58;93960.81;;;8.53;46.48
84492;BME280;74718;40.778;21.400;2024-02-14T10:54:29;93965.03;;;8.48;46.10
84492;BME280;74718;40.778;21.400;2024-02-14T10:56:58;93965.58;;;8.42;45.74
84492;BME280;74718;40.778;21.400;2024-02-14T10:59:25;93970.61;;;8.39;45.65
84492;BME280;74718;40.778;21.400;2024-02-14T11:01:52;93971.40;;;8.40;45.40
84492;BME280;74718;40.778;21.400;2024-02-14T11:04:18;93966.70;;;8.51;45.24
84492;BME280;74718;40.778;21.400;2024-02-14T11:06:48;93960.09;;;8.75;44.57
84492;BME280;74718;40.778;21.400;2024-02-14T11:09:14;93958.95;;;8.96;44.66
84492;BME280;74718;40.778;21.400;2024-02-14T11:11:43;93949.85;;;8.91;43.87
84492;BME280;74718;40.778;21.400;2024-02-14T11:14:09;93959.64;;;8.94;44.23
84492;BME280;74718;40.778;21.400;2024-02-14T11:16:37;93951.59;;;9.26;43.81
84492;BME280;74718;40.778;21.400;2024-02-14T11:19:10;93954.05;;;9.49;43.56
84492;BME280;74718;40.778;21.400;2024-02-14T11:21:44;93948.34;;;9.66;43.36
84492;BME280;74718;40.778;21.400;2024-02-14T11:24:12;93948.14;;;9.80;42.80
84492;BME280;74718;40.778;21.400;2024-02-14T11:26:49;93948.00;;;9.73;42.51
84492;BME280;74718;40.778;21.400;2024-02-14T11:29:20;93946.20;;;9.80;42.79
84492;BME280;74718;40.778;21.400;2024-02-14T11:31:46;93935.73;;;10.10;42.17
84492;BME280;74718;40.778;21.400;2024-02-14T11:34:16;93932.40;;;10.30;42.02
84492;BME280;74718;40.778;21.400;2024-02-14T11:36:43;93927.65;;;10.17;42.27
84492;BME280;74718;40.778;21.400;2024-02-14T11:39:10;93927.58;;;9.92;42.99
84492;BME280;74718;40.778;21.400;2024-02-14T11:41:37;93930.90;;;9.71;43.14
84492;BME280;74718;40.778;21.400;2024-02-14T11:44:04;93947.56;;;9.57;43.16
84492;BME280;74718;40.778;21.400;2024-02-14T11:46:35;93945.84;;;9.45;42.59
84492;BME280;74718;40.778;21.400;2024-02-14T11:49:02;93945.00;;;9.50;42.99
84492;BME280;74718;40.778;21.400;2024-02-14T11:51:29;93941.55;;;9.63;42.27
84492;BME280;74718;40.778;21.400;2024-02-14T11:53:57;93931.13;;;9.79;42.17
84492;BME280;74718;40.778;21.400;2024-02-14T11:56:39;93928.89;;;9.76;42.23
84492;BME280;74718;40.778;21.400;2024-02-14T11:59:08;93928.48;;;9.65;42.76
84492;BME280;74718;40.778;21.400;2024-02-14T12:01:36;93934.46;;;9.56;42.94
84492;BME280;74718;40.778;21.400;2024-02-14T12:04:04;93939.48;;;9.43;42.87
84492;BME280;74718;40.778;21.400;2024-02-14T12:09:55;93944.85;;;9.31;43.15
84492;BME280;74718;40.778;21.400;2024-02-14T12:12:20;93937.70;;;9.32;43.33
84492;BME280;74718;40.778;21.400;2024-02-14T12:14:46;93937.43;;;9.32;43.47
84492;BME280;74718;40.778;21.400;2024-02-14T12:17:16;93932.44;;;9.30;43.40
84492;BME280;74718;40.778;21.400;2024-02-14T12:19:44;93931.25;;;9.26;43.50
84492;BME280;74718;40.778;21.400;2024-02-14T12:22:10;93936.98;;;9.25;43.26
84492;BME280;74718;40.778;21.400;2024-02-14T12:24:46;93940.45;;;9.24;43.18
84492;BME280;74718;40.778;21.400;2024-02-14T12:27:18;93943.18;;;9.20;43.59
84492;BME280;74718;40.778;21.400;2024-02-14T12:29:46;93936.55;;;9.19;43.60
84492;BME280;74718;40.778;21.400;2024-02-14T12:32:11;93934.83;;;9.20;43.89
84492;BME280;74718;40.778;21.400;2024-02-14T12:34:44;93935.61;;;9.24;43.86
84492;BME280;74718;40.778;21.400;2024-02-14T12:37:10;93926.41;;;9.27;43.76
84492;BME280;74718;40.778;21.400;2024-02-14T12:39:37;93921.77;;;9.26;43.71
84492;BME280;74718;40.778;21.400;2024-02-14T12:42:03;93927.46;;;9.12;43.58
84492;BME280;74718;40.778;21.400;2024-02-14T12:44:30;93926.52;;;9.05;44.04
84492;BME280;74718;40.778;21.400;2024-02-14T12:46:56;93929.46;;;9.07;43.76
84492;BME280;74718;40.778;21.400;2024-02-14T12:49:23;93925.08;;;9.35;43.71
84492;BME280;74718;40.778;21.400;2024-02-14T12:51:51;93914.27;;;9.69;43.13
84492;BME280;74718;40.778;21.400;2024-02-14T12:54:17;93920.48;;;10.02;42.77
84492;BME280;74718;40.778;21.400;2024-02-14T12:56:43;93913.52;;;10.23;42.08
84492;BME280;74718;40.778;21.400;2024-02-14T12:59:16;93911.50;;;10.37;42.00
84492;BME280;74718;40.778;21.400;2024-02-14T13:01:43;93914.14;;;10.46;41.38